sensor_id;sensor_type;location;lat;lon;timestamp;pressure;altitude;pressure_sealevel;temperature;humidity
40245;BME280;25963;42.694;23.600;2023-07-29T00:01:59;95049.75;;;18.78;76.52
40245;BME280;25963;42.694;23.600;2023-07-29T00:04:24;95045.22;;;18.73;73.82
40245;BME280;25963;42.694;23.600;2023-07-29T00:06:50;95055.09;;;18.83;74.14
40245;BME280;25963;42.694;23.600;2023-07-29T00:09:15;95039.28;;;18.91;74.45
40245;BME280;25963;42.694;23.600;2023-07-29T00:11:41;95047.03;;;18.93;75.30
40245;BME280;25963;42.694;23.600;2023-07-29T00:14:06;95046.78;;;18.69;78.80
40245;BME280;25963;42.694;23.600;2023-07-29T00:16:32;95042.00;;;18.71;76.88
40245;BME280;25963;42.694;23.600;2023-07-29T00:18:57;95046.53;;;18.60;77.54
40245;BME280;25963;42.694;23.600;2023-07-29T00:21:23;95048.97;;;18.52;76.30
40245;BME280;25963;42.694;23.600;2023-07-29T00:23:48;95063.66;;;18.44;76.80
40245;BME280;25963;42.694;23.600;2023-07-29T00:26:14;95062.09;;;18.43;77.03
40245;BME280;25963;42.694;23.600;2023-07-29T00:28:39;95054.59;;;18.40;77.60
40245;BME280;25963;42.694;23.600;2023-07-29T00:31:05;95067.41;;;18.38;77.53
40245;BME280;25963;42.694;23.600;2023-07-29T00:33:30;95056.22;;;18.20;76.87
40245;BME280;25963;42.694;23.600;2023-07-29T00:35:55;95049.53;;;18.23;79.77
40245;BME280;25963;42.694;23.600;2023-07-29T00:38:21;95054.84;;;18.33;79.16
40245;BME280;25963;42.694;23.600;2023-07-29T00:40:46;95065.56;;;18.23;78.82
40245;BME280;25963;42.694;23.600;2023-07-29T00:43:12;95043.13;;;17.78;81.47
40245;BME280;25963;42.694;23.600;2023-07-29T00:45:39;95055.63;;;17.72;80.49
40245;BME280;25963;42.694;23.600;2023-07-29T00:48:08;95039.84;;;17.55;80.46
40245;BME280;25963;42.694;23.600;2023-07-29T00:50:33;95043.84;;;17.48;80.70
40245;BME280;25963;42.694;23.600;2023-07-29T00:52:59;95054.28;;;17.75;79.71
40245;BME280;25963;42.694;23.600;2023-07-29T00:55:24;95051.56;;;17.54;81.96
40245;BME280;25963;42.694;23.600;2023-07-29T00:57:51;95042.28;;;17.72;80.39
40245;BME280;25963;42.694;23.600;2023-07-29T01:00:17;95044.63;;;17.58;79.76
40245;BME280;25963;42.694;23.600;2023-07-29T01:02:43;95034.53;;;17.61;80.01
40245;BME280;25963;42.694;23.600;2023-07-29T01:05:14;95034.84;;;17.79;80.11
40245;BME280;25963;42.694;23.600;2023-07-29T01:10:31;95042.88;;;17.90;79.63
40245;BME280;25963;42.694;23.600;2023-07-29T01:13:06;95057.53;;;17.87;78.97
40245;BME280;25963;42.694;23.600;2023-07-29T01:15:51;95065.28;;;17.84;79.35
40245;BME280;25963;42.694;23.600;2023-07-29T01:20:47;95059.31;;;17.61;81.19
40245;BME280;25963;42.694;23.600;2023-07-29T01:23:13;95046.50;;;17.58;81.36
40245;BME280;25963;42.694;23.600;2023-07-29T01:25:38;95058.53;;;17.71;80.44
40245;BME280;25963;42.694;23.600;2023-07-29T01:28:04;95047.38;;;17.79;79.14
40245;BME280;25963;42.694;23.600;2023-07-29T01:30:33;95045.44;;;17.54;82.06
40245;BME280;25963;42.694;23.600;2023-07-29T01:33:25;95064.19;;;17.85;79.51
40245;BME280;25963;42.694;23.600;2023-07-29T01:35:56;95049.25;;;17.78;79.84
40245;BME280;25963;42.694;23.600;2023-07-29T01:38:28;95057.00;;;17.90;78.41
40245;BME280;25963;42.694;23.600;2023-07-29T01:40:58;95043.06;;;17.68;80.99
40245;BME280;25963;42.694;23.600;2023-07-29T01:43:24;95047.84;;;17.71;83.09
40245;BME280;25963;42.694;23.600;2023-07-29T01:45:51;95049.19;;;17.63;82.88
40245;BME280;25963;42.694;23.600;2023-07-29T01:48:16;95031.31;;;17.53;80.26
40245;BME280;25963;42.694;23.600;2023-07-29T01:50:42;95057.75;;;17.75;80.68
40245;BME280;25963;42.694;23.600;2023-07-29T01:53:08;95033.19;;;17.53;79.93
40245;BME280;25963;42.694;23.600;2023-07-29T01:55:33;95037.72;;;17.47;81.20
40245;BME280;25963;42.694;23.600;2023-07-29T01:57:59;95023.81;;;17.45;80.19
40245;BME280;25963;42.694;23.600;2023-07-29T02:00:24;95043.31;;;17.56;79.41
40245;BME280;25963;42.694;23.600;2023-07-29T02:02:50;95033.19;;;17.58;79.23
40245;BME280;25963;42.694;23.600;2023-07-29T02:05:15;95046.22;;;17.49;80.68
40245;BME280;25963;42.694;23.600;2023-07-29T02:07:40;95041.19;;;17.53;81.75
40245;BME280;25963;42.694;23.600;2023-07-29T02:10:06;95057.72;;;17.55;81.73
40245;BME280;25963;42.694;23.600;2023-07-29T02:12:33;95036.63;;;17.58;80.69
40245;BME280;25963;42.694;23.600;2023-07-29T02:14:58;95042.53;;;17.61;82.92
40245;BME280;25963;42.694;23.600;2023-07-29T02:17:24;95037.97;;;17.51;83.18
40245;BME280;25963;42.694;23.600;2023-07-29T02:19:49;95071.56;;;17.52;83.41
40245;BME280;25963;42.694;23.600;2023-07-29T02:22:16;95065.72;;;17.55;81.73
40245;BME280;25963;42.694;23.600;2023-07-29T02:24:42;95049.41;;;17.36;83.87
40245;BME280;25963;42.694;23.600;2023-07-29T02:27:08;95067.84;;;17.53;82.88
40245;BME280;25963;42.694;23.600;2023-07-29T02:29:33;95065.69;;;17.50;82.40
40245;BME280;25963;42.694;23.600;2023-07-29T02:31:59;95065.97;;;17.48;82.91
40245;BME280;25963;42.694;23.600;2023-07-29T02:34:25;95070.19;;;17.34;83.83
40245;BME280;25963;42.694;23.600;2023-07-29T02:36:50;95057.59;;;17.19;82.57
40245;BME280;25963;42.694;23.600;2023-07-29T02:39:16;95062.94;;;17.19;82.41
40245;BME280;25963;42.694;23.600;2023-07-29T02:41:42;95075.94;;;17.05;83.02
40245;BME280;25963;42.694;23.600;2023-07-29T02:44:07;95078.59;;;17.00;83.20
40245;BME280;25963;42.694;23.600;2023-07-29T02:46:32;95060.22;;;17.04;83.04
40245;BME280;25963;42.694;23.600;2023-07-29T02:48:58;95067.72;;;17.12;82.54
40245;BME280;25963;42.694;23.600;2023-07-29T02:51:24;95071.38;;;17.01;82.80
40245;BME280;25963;42.694;23.600;2023-07-29T02:53:49;95062.53;;;16.90;83.55
40245;BME280;25963;42.694;23.600;2023-07-29T02:56:15;95062.84;;;16.99;83.76
40245;BME280;25963;42.694;23.600;2023-07-29T02:58:40;95051.06;;;16.84;86.55
40245;BME280;25963;42.694;23.600;2023-07-29T03:01:06;95056.78;;;16.66;86.97
40245;BME280;25963;42.694;23.600;2023-07-29T03:03:32;95076.97;;;16.57;85.99
40245;BME280;25963;42.694;23.600;2023-07-29T03:06:08;95082.53;;;16.50;86.16
40245;BME280;25963;42.694;23.600;2023-07-29T03:08:34;95057.56;;;16.24;86.75
40245;BME280;25963;42.694;23.600;2023-07-29T03:11:11;95079.63;;;16.57;87.34
40245;BME280;25963;42.694;23.600;2023-07-29T03:13:37;95069.47;;;16.49;88.46
40245;BME280;25963;42.694;23.600;2023-07-29T03:16:06;95089.28;;;16.68;87.59
40245;BME280;25963;42.694;23.600;2023-07-29T03:18:31;95070.56;;;16.53;87.14
40245;BME280;25963;42.694;23.600;2023-07-29T03:20:57;95087.22;;;16.06;91.42
40245;BME280;25963;42.694;23.600;2023-07-29T03:23:22;95078.22;;;16.07;90.91
40245;BME280;25963;42.694;23.600;2023-07-29T03:25:49;95087.78;;;16.08;89.48
40245;BME280;25963;42.694;23.600;2023-07-29T03:28:16;95075.88;;;16.15;89.58
40245;BME280;25963;42.694;23.600;2023-07-29T03:30:42;95083.31;;;16.13;90.62
40245;BME280;25963;42.694;23.600;2023-07-29T03:33:07;95084.75;;;16.26;90.02
40245;BME280;25963;42.694;23.600;2023-07-29T03:35:32;95100.13;;;16.51;88.32
40245;BME280;25963;42.694;23.600;2023-07-29T03:37:58;95095.59;;;16.57;88.38
40245;BME280;25963;42.694;23.600;2023-07-29T03:40:23;95075.59;;;16.49;87.84
40245;BME280;25963;42.694;23.600;2023-07-29T03:42:49;95087.19;;;16.70;87.96
40245;BME280;25963;42.694;23.600;2023-07-29T03:45:14;95095.38;;;16.58;89.74
40245;BME280;25963;42.694;23.600;2023-07-29T03:47:40;95075.84;;;16.48;88.48
40245;BME280;25963;42.694;23.600;2023-07-29T03:50:06;95095.94;;;16.28;89.65
40245;BME280;25963;42.694;23.600;2023-07-29T03:52:31;95081.84;;;15.95;91.73
40245;BME280;25963;42.694;23.600;2023-07-29T03:54:57;95091.16;;;16.30;90.78
40245;BME280;25963;42.694;23.600;2023-07-29T03:57:22;95077.69;;;16.47;89.70
40245;BME280;25963;42.694;23.600;2023-07-29T03:59:48;95095.00;;;16.82;88.97
40245;BME280;25963;42.694;23.600;2023-07-29T04:02:13;95076.13;;;16.88;87.40
40245;BME280;25963;42.694;23.600;2023-07-29T04:04:39;95074.34;;;17.09;86.27
40245;BME280;25963;42.694;23.600;2023-07-29T04:07:07;95096.88;;;17.39;85.50
40245;BME280;25963;42.694;23.600;2023-07-29T04:09:32;95081.19;;;17.53;85.02
40245;BME280;25963;42.694;23.600;2023-07-29T04:11:58;95081.03;;;17.95;85.67
40245;BME280;25963;42.694;23.600;2023-07-29T04:14:24;95086.19;;;19.33;79.19
40245;BME280;25963;42.694;23.600;2023-07-29T04:16:49;95091.03;;;21.13;69.32
40245;BME280;25963;42.694;23.600;2023-07-29T04:19:14;95058.03;;;22.96;58.76
40245;BME280;25963;42.694;23.600;2023-07-29T04:21:40;95073.28;;;24.74;51.64
40245;BME280;25963;42.694;23.600;2023-07-29T04:24:05;95066.09;;;26.32;46.29
40245;BME280;25963;42.694;23.600;2023-07-29T04:26:31;95063.75;;;27.42;40.71
40245;BME280;25963;42.694;23.600;2023-07-29T04:28:56;95055.94;;;28.00;38.96
40245;BME280;25963;42.694;23.600;2023-07-29T04:31:23;95075.34;;;28.02;38.82
40245;BME280;25963;42.694;23.600;2023-07-29T04:33:48;95077.47;;;28.17;38.90
40245;BME280;25963;42.694;23.600;2023-07-29T04:36:14;95074.09;;;28.75;37.37
40245;BME280;25963;42.694;23.600;2023-07-29T04:38:39;95071.06;;;29.34;36.68
40245;BME280;25963;42.694;23.600;2023-07-29T04:41:05;95069.28;;;29.75;35.09
40245;BME280;25963;42.694;23.600;2023-07-29T04:43:32;95081.53;;;30.09;34.76
40245;BME280;25963;42.694;23.600;2023-07-29T04:45:58;95070.78;;;30.25;34.50
40245;BME280;25963;42.694;23.600;2023-07-29T04:48:23;95082.88;;;30.15;34.18
40245;BME280;25963;42.694;23.600;2023-07-29T04:50:49;95073.00;;;29.70;35.11
40245;BME280;25963;42.694;23.600;2023-07-29T04:53:14;95086.41;;;30.56;33.79
40245;BME280;25963;42.694;23.600;2023-07-29T04:55:42;95075.19;;;30.86;33.32
40245;BME280;25963;42.694;23.600;2023-07-29T04:58:08;95078.47;;;30.63;32.81
40245;BME280;25963;42.694;23.600;2023-07-29T05:00:34;95094.66;;;30.60;32.37
40245;BME280;25963;42.694;23.600;2023-07-29T05:02:59;95094.03;;;30.51;33.58
40245;BME280;25963;42.694;23.600;2023-07-29T05:05:26;95081.72;;;30.97;31.95
40245;BME280;25963;42.694;23.600;2023-07-29T05:07:51;95110.91;;;31.76;31.87
40245;BME280;25963;42.694;23.600;2023-07-29T05:10:17;95093.41;;;31.29;31.14
40245;BME280;25963;42.694;23.600;2023-07-29T05:12:42;95091.69;;;31.88;31.14
40245;BME280;25963;42.694;23.600;2023-07-29T05:15:08;95095.75;;;32.29;31.67
40245;BME280;25963;42.694;23.600;2023-07-29T05:17:33;95097.19;;;32.82;30.88
40245;BME280;25963;42.694;23.600;2023-07-29T05:19:59;95107.41;;;33.04;29.15
40245;BME280;25963;42.694;23.600;2023-07-29T05:22:24;95102.63;;;33.44;28.28
40245;BME280;25963;42.694;23.600;2023-07-29T05:24:50;95106.28;;;33.51;28.42
40245;BME280;25963;42.694;23.600;2023-07-29T05:27:15;95089.03;;;33.24;28.66
40245;BME280;25963;42.694;23.600;2023-07-29T05:29:41;95096.41;;;32.42;28.54
40245;BME280;25963;42.694;23.600;2023-07-29T05:32:07;95095.31;;;32.08;29.85
40245;BME280;25963;42.694;23.600;2023-07-29T05:34:32;95102.81;;;32.69;28.60
40245;BME280;25963;42.694;23.600;2023-07-29T05:36:58;95096.41;;;33.01;28.98
40245;BME280;25963;42.694;23.600;2023-07-29T05:39:23;95099.50;;;32.60;29.66
40245;BME280;25963;42.694;23.600;2023-07-29T05:41:49;95096.44;;;32.62;30.24
40245;BME280;25963;42.694;23.600;2023-07-29T05:44:15;95107.00;;;32.09;29.69
40245;BME280;25963;42.694;23.600;2023-07-29T05:46:40;95111.81;;;32.50;30.89
40245;BME280;25963;42.694;23.600;2023-07-29T05:49:05;95109.56;;;32.76;30.13
40245;BME280;25963;42.694;23.600;2023-07-29T05:51:31;95107.16;;;32.16;29.32
40245;BME280;25963;42.694;23.600;2023-07-29T05:53:56;95111.72;;;32.86;31.06
40245;BME280;25963;42.694;23.600;2023-07-29T05:56:22;95115.00;;;32.95;28.49
40245;BME280;25963;42.694;23.600;2023-07-29T05:58:47;95113.91;;;33.19;30.04
40245;BME280;25963;42.694;23.600;2023-07-29T06:01:13;95092.34;;;32.52;29.17
40245;BME280;25963;42.694;23.600;2023-07-29T06:03:38;95110.72;;;32.94;30.59
40245;BME280;25963;42.694;23.600;2023-07-29T06:06:03;95106.22;;;33.25;31.03
40245;BME280;25963;42.694;23.600;2023-07-29T06:08:29;95107.09;;;32.90;29.26
40245;BME280;25963;42.694;23.600;2023-07-29T06:10:54;95102.66;;;33.01;30.27
40245;BME280;25963;42.694;23.600;2023-07-29T06:13:20;95123.16;;;32.91;28.39
40245;BME280;25963;42.694;23.600;2023-07-29T06:15:45;95114.97;;;32.53;30.04
40245;BME280;25963;42.694;23.600;2023-07-29T06:18:11;95109.44;;;32.88;30.08
40245;BME280;25963;42.694;23.600;2023-07-29T06:20:36;95093.88;;;32.14;28.87
40245;BME280;25963;42.694;23.600;2023-07-29T06:23:02;95096.19;;;32.32;28.97
40245;BME280;25963;42.694;23.600;2023-07-29T06:25:27;95096.97;;;32.32;29.55
40245;BME280;25963;42.694;23.600;2023-07-29T06:27:53;95100.72;;;32.43;29.83
40245;BME280;25963;42.694;23.600;2023-07-29T06:30:18;95092.81;;;32.77;30.09
40245;BME280;25963;42.694;23.600;2023-07-29T06:32:44;95097.28;;;32.66;30.06
40245;BME280;25963;42.694;23.600;2023-07-29T06:35:09;95101.78;;;32.97;28.94
40245;BME280;25963;42.694;23.600;2023-07-29T06:37:34;95098.13;;;32.31;29.24
40245;BME280;25963;42.694;23.600;2023-07-29T06:40:00;95079.13;;;32.54;29.30
40245;BME280;25963;42.694;23.600;2023-07-29T06:42:25;95085.44;;;32.58;29.69
40245;BME280;25963;42.694;23.600;2023-07-29T06:44:51;95075.78;;;32.84;29.67
40245;BME280;25963;42.694;23.600;2023-07-29T06:47:16;95083.31;;;33.10;28.38
40245;BME280;25963;42.694;23.600;2023-07-29T06:49:42;95072.94;;;32.57;29.55
40245;BME280;25963;42.694;23.600;2023-07-29T06:52:07;95083.28;;;32.67;29.73
40245;BME280;25963;42.694;23.600;2023-07-29T06:54:33;95064.91;;;32.45;29.34
40245;BME280;25963;42.694;23.600;2023-07-29T06:56:58;95070.66;;;31.89;32.37
40245;BME280;25963;42.694;23.600;2023-07-29T06:59:24;95067.22;;;32.08;30.17
40245;BME280;25963;42.694;23.600;2023-07-29T07:01:50;95071.16;;;31.91;30.11
40245;BME280;25963;42.694;23.600;2023-07-29T07:04:15;95075.63;;;31.99;32.03
40245;BME280;25963;42.694;23.600;2023-07-29T07:06:40;95068.19;;;31.16;31.60
40245;BME280;25963;42.694;23.600;2023-07-29T07:09:06;95074.69;;;31.44;30.39
40245;BME280;25963;42.694;23.600;2023-07-29T07:11:32;95065.91;;;31.66;31.80
40245;BME280;25963;42.694;23.600;2023-07-29T07:13:57;95043.09;;;31.74;32.05
40245;BME280;25963;42.694;23.600;2023-07-29T07:16:22;95054.88;;;31.78;31.71
40245;BME280;25963;42.694;23.600;2023-07-29T07:18:48;95067.91;;;31.69;29.94
40245;BME280;25963;42.694;23.600;2023-07-29T07:21:13;95054.78;;;31.91;32.26
40245;BME280;25963;42.694;23.600;2023-07-29T07:23:39;95037.16;;;32.04;34.24
40245;BME280;25963;42.694;23.600;2023-07-29T07:26:04;95065.88;;;32.17;32.95
40245;BME280;25963;42.694;23.600;2023-07-29T07:28:30;95069.56;;;31.90;32.81
40245;BME280;25963;42.694;23.600;2023-07-29T07:30:55;95074.22;;;31.73;31.87
40245;BME280;25963;42.694;23.600;2023-07-29T07:33:21;95073.03;;;32.06;31.57
40245;BME280;25963;42.694;23.600;2023-07-29T07:35:47;95057.81;;;32.05;33.83
40245;BME280;25963;42.694;23.600;2023-07-29T07:38:12;95067.03;;;32.16;32.28
40245;BME280;25963;42.694;23.600;2023-07-29T07:40:38;95068.56;;;31.98;31.40
40245;BME280;25963;42.694;23.600;2023-07-29T07:43:03;95071.91;;;31.40;31.51
40245;BME280;25963;42.694;23.600;2023-07-29T07:45:29;95062.00;;;30.60;31.53
40245;BME280;25963;42.694;23.600;2023-07-29T07:47:56;95056.75;;;31.11;31.40
40245;BME280;25963;42.694;23.600;2023-07-29T07:50:22;95060.19;;;31.71;31.09
40245;BME280;25963;42.694;23.600;2023-07-29T07:52:49;95053.28;;;31.42;30.70
40245;BME280;25963;42.694;23.600;2023-07-29T07:55:14;95060.53;;;31.70;31.83
40245;BME280;25963;42.694;23.600;2023-07-29T07:57:40;95057.47;;;31.40;32.51
40245;BME280;25963;42.694;23.600;2023-07-29T08:00:06;95069.38;;;30.59;32.04
40245;BME280;25963;42.694;23.600;2023-07-29T08:02:31;95050.34;;;31.19;32.74
40245;BME280;25963;42.694;23.600;2023-07-29T08:04:57;95060.53;;;31.70;34.68
40245;BME280;25963;42.694;23.600;2023-07-29T08:07:22;95055.38;;;32.00;30.88
40245;BME280;25963;42.694;23.600;2023-07-29T08:09:47;95052.53;;;31.61;28.64
40245;BME280;25963;42.694;23.600;2023-07-29T08:12:13;95039.38;;;31.82;30.86
40245;BME280;25963;42.694;23.600;2023-07-29T08:14:40;95036.78;;;32.05;30.81
40245;BME280;25963;42.694;23.600;2023-07-29T08:17:06;95046.75;;;31.98;30.53
40245;BME280;25963;42.694;23.600;2023-07-29T08:19:31;95055.75;;;32.37;31.58
40245;BME280;25963;42.694;23.600;2023-07-29T08:21:57;95056.31;;;32.08;28.54
40245;BME280;25963;42.694;23.600;2023-07-29T08:24:23;95047.63;;;32.41;31.29
40245;BME280;25963;42.694;23.600;2023-07-29T08:26:49;95052.38;;;32.44;29.13
40245;BME280;25963;42.694;23.600;2023-07-29T08:29:14;95048.34;;;32.77;31.79
40245;BME280;25963;42.694;23.600;2023-07-29T08:31:39;95058.31;;;32.46;28.54
40245;BME280;25963;42.694;23.600;2023-07-29T08:34:05;95052.59;;;32.74;28.70
40245;BME280;25963;42.694;23.600;2023-07-29T08:36:30;95048.13;;;33.08;29.60
40245;BME280;25963;42.694;23.600;2023-07-29T08:38:56;95047.56;;;32.57;30.84
40245;BME280;25963;42.694;23.600;2023-07-29T08:41:25;95038.94;;;32.74;32.33
40245;BME280;25963;42.694;23.600;2023-07-29T08:43:59;95036.81;;;33.06;29.48
40245;BME280;25963;42.694;23.600;2023-07-29T08:46:28;95038.50;;;32.72;29.84
40245;BME280;25963;42.694;23.600;2023-07-29T08:48:54;95029.31;;;32.61;28.32
40245;BME280;25963;42.694;23.600;2023-07-29T08:51:21;95041.25;;;33.41;25.91
40245;BME280;25963;42.694;23.600;2023-07-29T08:53:49;95019.38;;;33.41;27.00
40245;BME280;25963;42.694;23.600;2023-07-29T08:56:14;95032.91;;;34.10;26.39
40245;BME280;25963;42.694;23.600;2023-07-29T08:58:40;95030.41;;;34.01;26.86
40245;BME280;25963;42.694;23.600;2023-07-29T09:01:06;95026.25;;;34.07;29.68
40245;BME280;25963;42.694;23.600;2023-07-29T09:03:32;95007.16;;;34.48;29.22
40245;BME280;25963;42.694;23.600;2023-07-29T09:05:58;95005.47;;;34.37;26.45
40245;BME280;25963;42.694;23.600;2023-07-29T09:08:26;95009.34;;;34.32;27.16
40245;BME280;25963;42.694;23.600;2023-07-29T09:10:52;95012.84;;;34.02;25.87
40245;BME280;25963;42.694;23.600;2023-07-29T09:13:17;95004.66;;;33.72;26.57
40245;BME280;25963;42.694;23.600;2023-07-29T09:15:43;95001.13;;;34.02;26.84
40245;BME280;25963;42.694;23.600;2023-07-29T09:18:15;95008.53;;;34.01;26.51
40245;BME280;25963;42.694;23.600;2023-07-29T09:20:41;95001.00;;;34.55;29.92
40245;BME280;25963;42.694;23.600;2023-07-29T09:23:08;95002.41;;;34.42;26.01
40245;BME280;25963;42.694;23.600;2023-07-29T09:25:36;95003.16;;;34.39;28.23
40245;BME280;25963;42.694;23.600;2023-07-29T09:28:11;94996.66;;;34.17;29.78
40245;BME280;25963;42.694;23.600;2023-07-29T09:30:40;95005.16;;;34.08;26.71
40245;BME280;25963;42.694;23.600;2023-07-29T09:33:06;95006.63;;;34.69;27.91
40245;BME280;25963;42.694;23.600;2023-07-29T09:35:34;94988.28;;;35.18;28.43
40245;BME280;25963;42.694;23.600;2023-07-29T09:38:00;94988.53;;;35.54;27.67
40245;BME280;25963;42.694;23.600;2023-07-29T09:40:25;94990.81;;;35.41;28.29
40245;BME280;25963;42.694;23.600;2023-07-29T09:42:53;94997.63;;;35.58;26.13
40245;BME280;25963;42.694;23.600;2023-07-29T09:45:23;94983.16;;;35.64;26.02
40245;BME280;25963;42.694;23.600;2023-07-29T09:47:49;94987.19;;;35.85;25.63
40245;BME280;25963;42.694;23.600;2023-07-29T09:50:15;94991.13;;;35.29;24.13
40245;BME280;25963;42.694;23.600;2023-07-29T09:52:41;94989.16;;;35.26;24.68
40245;BME280;25963;42.694;23.600;2023-07-29T09:55:07;94986.13;;;35.41;25.20
40245;BME280;25963;42.694;23.600;2023-07-29T09:57:33;94986.94;;;35.46;29.49
40245;BME280;25963;42.694;23.600;2023-07-29T09:59:59;94965.56;;;34.73;26.13
40245;BME280;25963;42.694;23.600;2023-07-29T10:02:24;94968.00;;;35.26;26.89
40245;BME280;25963;42.694;23.600;2023-07-29T10:04:54;94965.13;;;35.08;25.83
40245;BME280;25963;42.694;23.600;2023-07-29T10:07:21;94966.50;;;35.36;24.66
40245;BME280;25963;42.694;23.600;2023-07-29T10:09:48;94969.41;;;35.06;25.67
40245;BME280;25963;42.694;23.600;2023-07-29T10:12:17;94951.81;;;35.65;24.53
40245;BME280;25963;42.694;23.600;2023-07-29T10:14:43;94966.81;;;35.82;24.68
40245;BME280;25963;42.694;23.600;2023-07-29T10:17:10;94973.38;;;35.63;24.68
40245;BME280;25963;42.694;23.600;2023-07-29T10:19:36;94968.09;;;34.92;23.83
40245;BME280;25963;42.694;23.600;2023-07-29T10:22:03;94970.09;;;34.95;24.42
40245;BME280;25963;42.694;23.600;2023-07-29T10:24:33;94951.59;;;34.44;27.23
40245;BME280;25963;42.694;23.600;2023-07-29T10:27:01;94951.56;;;34.07;27.01
40245;BME280;25963;42.694;23.600;2023-07-29T10:29:38;94949.38;;;34.57;26.21
40245;BME280;25963;42.694;23.600;2023-07-29T10:32:04;94944.59;;;34.50;27.20
40245;BME280;25963;42.694;23.600;2023-07-29T10:34:31;94941.56;;;35.04;25.14
40245;BME280;25963;42.694;23.600;2023-07-29T10:36:58;94943.09;;;34.97;24.26
40245;BME280;25963;42.694;23.600;2023-07-29T10:39:25;94932.47;;;34.92;24.19
40245;BME280;25963;42.694;23.600;2023-07-29T10:41:55;94938.84;;;35.04;23.23
40245;BME280;25963;42.694;23.600;2023-07-29T10:47:15;94919.44;;;35.27;27.68
40245;BME280;25963;42.694;23.600;2023-07-29T10:49:45;94927.94;;;35.66;25.46
40245;BME280;25963;42.694;23.600;2023-07-29T10:52:15;94920.19;;;34.75;24.35
40245;BME280;25963;42.694;23.600;2023-07-29T10:54:42;94921.06;;;34.83;24.08
40245;BME280;25963;42.694;23.600;2023-07-29T10:57:07;94902.09;;;35.08;23.09
40245;BME280;25963;42.694;23.600;2023-07-29T10:59:33;94894.72;;;35.19;23.92
40245;BME280;25963;42.694;23.600;2023-07-29T11:02:02;94915.72;;;35.01;23.45
40245;BME280;25963;42.694;23.600;2023-07-29T11:04:29;94910.28;;;35.63;25.42
40245;BME280;25963;42.694;23.600;2023-07-29T11:09:40;94893.28;;;36.42;24.82
40245;BME280;25963;42.694;23.600;2023-07-29T11:12:37;94909.81;;;36.99;22.92
40245;BME280;25963;42.694;23.600;2023-07-29T11:17:32;94892.81;;;36.04;22.67
40245;BME280;25963;42.694;23.600;2023-07-29T11:20:00;94898.72;;;36.09;21.57
40245;BME280;25963;42.694;23.600;2023-07-29T11:22:26;94902.38;;;36.89;23.02
40245;BME280;25963;42.694;23.600;2023-07-29T11:24:51;94892.56;;;37.02;21.96
40245;BME280;25963;42.694;23.600;2023-07-29T11:27:16;94894.94;;;37.00;20.74
40245;BME280;25963;42.694;23.600;2023-07-29T11:29:42;94901.19;;;37.18;21.59
40245;BME280;25963;42.694;23.600;2023-07-29T11:32:09;94905.13;;;37.14;19.54
40245;BME280;25963;42.694;23.600;2023-07-29T11:34:34;94887.84;;;37.13;21.17
40245;BME280;25963;42.694;23.600;2023-07-29T11:37:00;94892.88;;;36.43;21.11
40245;BME280;25963;42.694;23.600;2023-07-29T11:39:25;94892.94;;;36.79;22.45
40245;BME280;25963;42.694;23.600;2023-07-29T11:41:51;94883.94;;;37.07;22.55
40245;BME280;25963;42.694;23.600;2023-07-29T11:44:17;94877.91;;;37.62;24.04
40245;BME280;25963;42.694;23.600;2023-07-29T11:46:43;94879.81;;;37.83;22.57
40245;BME280;25963;42.694;23.600;2023-07-29T11:49:09;94876.31;;;37.76;22.11
40245;BME280;25963;42.694;23.600;2023-07-29T11:51:34;94877.53;;;37.57;21.25
40245;BME280;25963;42.694;23.600;2023-07-29T11:54:01;94876.38;;;37.43;22.48
40245;BME280;25963;42.694;23.600;2023-07-29T11:56:27;94866.22;;;37.15;20.27
40245;BME280;25963;42.694;23.600;2023-07-29T11:58:54;94874.88;;;36.60;19.55
40245;BME280;25963;42.694;23.600;2023-07-29T12:01:20;94869.78;;;36.91;21.35
40245;BME280;25963;42.694;23.600;2023-07-29T12:03:47;94845.03;;;37.16;22.64
40245;BME280;25963;42.694;23.600;2023-07-29T12:06:14;94850.97;;;36.71;20.81
40245;BME280;25963;42.694;23.600;2023-07-29T12:08:40;94860.72;;;36.44;20.20
40245;BME280;25963;42.694;23.600;2023-07-29T12:11:05;94850.56;;;36.80;22.75
40245;BME280;25963;42.694;23.600;2023-07-29T12:13:32;94839.94;;;37.00;21.49
40245;BME280;25963;42.694;23.600;2023-07-29T12:16:01;94840.66;;;36.04;20.66
40245;BME280;25963;42.694;23.600;2023-07-29T12:18:31;94832.88;;;36.81;21.38
40245;BME280;25963;42.694;23.600;2023-07-29T12:20:57;94825.84;;;36.62;20.29
40245;BME280;25963;42.694;23.600;2023-07-29T12:23:26;94850.94;;;36.78;20.43
40245;BME280;25963;42.694;23.600;2023-07-29T12:25:57;94839.97;;;36.53;20.12
40245;BME280;25963;42.694;23.600;2023-07-29T12:28:23;94842.25;;;36.19;19.84
40245;BME280;25963;42.694;23.600;2023-07-29T12:30:55;94832.13;;;36.66;20.94
40245;BME280;25963;42.694;23.600;2023-07-29T12:35:56;94820.50;;;37.72;20.20
40245;BME280;25963;42.694;23.600;2023-07-29T12:38:22;94829.63;;;37.36;19.14
40245;BME280;25963;42.694;23.600;2023-07-29T12:40:47;94833.59;;;37.32;19.11
40245;BME280;25963;42.694;23.600;2023-07-29T12:43:13;94830.41;;;37.44;20.51
40245;BME280;25963;42.694;23.600;2023-07-29T12:45:38;94820.28;;;37.12;19.24
40245;BME280;25963;42.694;23.600;2023-07-29T12:48:07;94833.56;;;37.50;20.02
40245;BME280;25963;42.694;23.600;2023-07-29T12:50:32;94819.84;;;37.24;18.66
40245;BME280;25963;42.694;23.600;2023-07-29T12:52:57;94819.41;;;37.51;18.90
40245;BME280;25963;42.694;23.600;2023-07-29T12:55:23;94832.88;;;36.99;20.29
40245;BME280;25963;42.694;23.600;2023-07-29T12:57:49;94826.59;;;36.95;19.88
40245;BME280;25963;42.694;23.600;2023-07-29T13:00:15;94822.25;;;37.15;18.63
40245;BME280;25963;42.694;23.600;2023-07-29T13:02:40;94817.03;;;37.42;19.71